Charlotte, NC (28254)

12:25 PM EST on December 18, 2014 (GMT -0500)
Yorkmount | Change Station
CLOSE
Current Station
Personal Weather Station
Location: Charlotte, NC
Elevation: 709 ft
Nearby Weather Stations

Elev 709 ft 35.16 °N, 80.90 °W | Updated 6 seconds ago

Overcast
Overcast
50.5 °F
Feels Like 50.5 °F
N
0.0
Wind Variable Wind from North
Gusts 0.0 mph

Today
High -- | Low -- °F
--% Chance of Precip.
Yesterday
High -- | Low -- °F
Precip. -- in
7:26 AM 5:14 PM
Waning Crescent, 13% visible
Pressure 30.17 in
Visibility 10.0 miles
Clouds Overcast 9000 ft
Dew Point 32 °F
Humidity 42%
Rainfall 0.00 in
Snow Depth Not available.
UV 1 out of 12
Pollen 1.10 out of 12
Air Quality Not available.
Flu Activity Not available.
METAR KCLT 181652Z 00000KT 10SM OVC090 09/M05 A3017 RMK AO2 SLP216 T00941050

More Conditions Fewer Conditions

Pressure 30.17 in
Visibility 10.0 miles
Clouds Overcast 9000 ft
Dew Point 32 °F
Humidity 42%
Rainfall 0.00 in
Snow Depth Not available.
UV 1 out of 12
Pollen 1.10 out of 12
Air Quality Not available.
Flu Activity Not available.
METAR KCLT 181652Z 00000KT 10SM OVC090 09/M05 A3017 RMK AO2 SLP216 T00941050

More Conditions Fewer Conditions

10-Day Weather Forecast

Almanac

Astronomy

Dec. 18, 2014 Rise Set
Actual Time
Civil Twilight
Nautical Twilight
Astronomical Twilight
Moon
Length of Visible Light
Length of Day
Tomorrow will be .
, % of the Moon is Illuminated

Today's Extremes

State Highs State Lows

Community

WunderPhotos

Upload Photos

1,778,964 photos uploaded!

WunderBlogs® & News

Nearby

Air Quality

  Air Quality AQ Index Pollutant
Not available.

Snow Depth

Station Depth Elevation

Earthquake Activity

City Distance Mag. Time & Date
Minimum magnitude displayed is 2.5.

Coastal Water Temperatures

Place Temperature

Nearby Weather Stations